createdAt,value
2019-04-05T00:00:06.899Z,50.83
2019-04-05T00:02:36.441Z,50.85
2019-04-05T00:05:08.654Z,50.88
2019-04-05T00:07:38.102Z,51.13
2019-04-05T00:10:08.362Z,51.75
2019-04-05T00:12:37.812Z,52.20
2019-04-05T00:15:15.000Z,52.54
2019-04-05T00:17:38.544Z,52.81
2019-04-05T00:20:08.436Z,52.37
2019-04-05T00:22:37.879Z,51.82
2019-04-05T00:25:07.294Z,52.08
2019-04-05T00:27:36.754Z,51.86
2019-04-05T00:30:08.971Z,52.06
2019-04-05T00:32:38.404Z,51.88
2019-04-05T00:35:07.821Z,52.43
2019-04-05T00:37:37.368Z,51.52
2019-04-05T00:40:09.039Z,51.39
2019-04-05T00:42:38.482Z,51.32
2019-04-05T00:45:08.171Z,51.15
2019-04-05T00:47:37.621Z,51.19
2019-04-05T00:50:07.411Z,51.39
2019-04-05T00:52:36.964Z,51.61
2019-04-05T00:55:06.661Z,51.47
2019-04-05T00:57:36.103Z,51.39
2019-04-05T01:00:06.187Z,51.58
2019-04-05T01:02:35.732Z,51.82
2019-04-05T01:05:06.895Z,51.98
2019-04-05T01:07:36.354Z,51.82
2019-04-05T01:10:06.557Z,51.90
2019-04-05T01:12:36.008Z,51.90
2019-04-05T01:15:05.499Z,51.93
2019-04-05T01:17:34.949Z,51.47
2019-04-05T01:20:04.366Z,52.10
2019-04-05T01:22:33.917Z,51.91
2019-04-05T01:25:03.773Z,51.79
2019-04-05T01:27:33.530Z,52.18
2019-04-05T01:30:03.050Z,52.41
2019-04-05T01:32:32.596Z,52.73
2019-04-05T01:35:02.047Z,53.08
2019-04-05T01:37:31.571Z,53.40
2019-04-05T01:40:01.021Z,53.69
2019-04-05T01:42:30.508Z,54.12
2019-04-05T01:44:59.961Z,54.28
2019-04-05T01:47:29.382Z,54.10
2019-04-05T01:49:58.829Z,53.55
2019-04-05T01:52:28.485Z,53.77
2019-04-05T01:54:57.934Z,53.69
2019-04-05T01:57:27.354Z,53.57
2019-04-05T01:59:56.845Z,53.23
2019-04-05T02:02:26.265Z,53.92
2019-04-05T02:04:56.038Z,54.12
2019-04-05T02:07:25.654Z,54.36
2019-04-05T02:09:55.207Z,54.28
2019-04-05T02:12:24.637Z,54.50
2019-04-05T02:14:54.080Z,54.68
2019-04-05T02:17:23.501Z,54.82
2019-04-05T02:19:53.006Z,54.82
2019-04-05T02:22:22.434Z,54.62
2019-04-05T02:24:52.963Z,55.09
2019-04-05T02:27:22.423Z,55.32
2019-04-05T02:29:51.871Z,55.50
2019-04-05T02:32:21.289Z,55.36
2019-04-05T02:34:50.742Z,55.58
2019-04-05T02:37:20.181Z,55.83
2019-04-05T02:39:49.721Z,55.89
2019-04-05T02:42:19.155Z,55.88
2019-04-05T02:44:48.599Z,56.84
2019-04-05T02:47:18.021Z,56.24
2019-04-05T02:49:47.485Z,56.03
2019-04-05T02:52:16.894Z,56.52
2019-04-05T02:54:46.678Z,56.69
2019-04-05T02:57:16.579Z,56.71
2019-04-05T02:59:46.028Z,56.71
2019-04-05T03:02:15.444Z,56.67
2019-04-05T03:04:45.076Z,57.15
2019-04-05T03:07:14.492Z,56.96
2019-04-05T03:09:44.040Z,56.66
2019-04-05T03:12:13.456Z,56.62
2019-04-05T03:14:42.914Z,56.70
2019-04-05T03:17:12.335Z,56.95
2019-04-05T03:19:41.868Z,57.05
2019-04-05T03:22:12.123Z,56.72
2019-04-05T03:24:42.139Z,56.90
2019-04-05T03:27:14.596Z,57.23
2019-04-05T03:29:44.053Z,57.87
2019-04-05T03:32:13.461Z,58.15
2019-04-05T03:34:42.970Z,58.97
2019-04-05T03:37:12.519Z,58.65
2019-04-05T03:39:41.986Z,59.68
2019-04-05T03:42:11.451Z,59.55
2019-04-05T03:44:40.992Z,59.32
2019-04-05T03:47:10.414Z,59.69
2019-04-05T03:49:39.867Z,60.05
2019-04-05T03:52:09.335Z,59.67
2019-04-05T03:54:38.793Z,60.04
2019-04-05T03:57:08.211Z,60.41
2019-04-05T03:59:37.632Z,60.41
2019-04-05T04:02:07.071Z,60.67
2019-04-05T04:04:36.496Z,61.46
2019-04-05T04:07:06.041Z,61.44
2019-04-05T04:09:35.474Z,61.48
2019-04-05T04:12:05.025Z,61.24
2019-04-05T04:14:34.457Z,61.56
2019-04-05T04:17:12.309Z,61.81
2019-04-05T04:19:35.535Z,61.85
2019-04-05T04:22:10.932Z,62.14
2019-04-05T04:24:40.347Z,62.30
2019-04-05T04:27:09.819Z,62.39
2019-04-05T04:29:39.906Z,62.87
2019-04-05T04:32:09.467Z,62.62
2019-04-05T04:34:38.976Z,62.25
2019-04-05T04:37:08.427Z,62.35
2019-04-05T04:39:37.843Z,62.42
2019-04-05T04:42:07.398Z,62.09
2019-04-05T04:44:36.818Z,61.90
2019-04-05T04:47:06.278Z,61.57
2019-04-05T04:49:35.704Z,61.07
2019-04-05T04:52:05.155Z,60.80
2019-04-05T04:54:34.574Z,60.71
2019-04-05T04:57:04.030Z,60.68
2019-04-05T04:59:33.548Z,60.14
2019-04-05T05:02:04.306Z,60.40
2019-04-05T05:04:33.829Z,60.20
2019-04-05T05:07:03.299Z,60.34
2019-04-05T05:09:32.725Z,60.28
2019-04-05T05:12:02.269Z,60.29
2019-04-05T05:14:31.696Z,60.12
2019-04-05T05:17:01.247Z,60.07
2019-04-05T05:19:30.768Z,60.07
2019-04-05T05:22:00.234Z,60.20
2019-04-05T05:24:29.935Z,60.03
2019-04-05T05:26:59.595Z,60.74
2019-04-05T05:29:29.001Z,60.80
2019-04-05T05:31:58.687Z,61.03
2019-04-05T05:34:28.101Z,60.40
2019-04-05T05:36:57.981Z,60.40
2019-04-05T05:39:27.417Z,61.25
2019-04-05T05:41:56.948Z,60.84
2019-04-05T05:44:26.462Z,59.58
2019-04-05T05:46:56.226Z,60.19
2019-04-05T05:49:25.678Z,59.54
2019-04-05T05:51:55.239Z,59.41
2019-04-05T05:54:24.663Z,59.01
2019-04-05T05:56:54.117Z,58.61
2019-04-05T05:59:23.534Z,58.07
2019-04-05T06:01:53.345Z,57.39
2019-04-05T06:04:22.870Z,57.41
2019-04-05T06:06:52.319Z,57.64
2019-04-05T06:09:21.844Z,56.55
2019-04-05T06:11:51.301Z,56.14
2019-04-05T06:14:20.721Z,55.13
2019-04-05T06:16:50.197Z,54.84
2019-04-05T06:19:19.781Z,54.93
2019-04-05T06:21:49.387Z,54.78
2019-04-05T06:24:18.941Z,54.79
2019-04-05T06:26:51.047Z,54.78
2019-04-05T06:29:20.600Z,54.23
2019-04-05T06:31:50.246Z,53.93
2019-04-05T06:34:19.672Z,54.59
2019-04-05T06:36:51.171Z,53.97
2019-04-05T06:39:20.764Z,53.51
2019-04-05T06:41:50.377Z,53.34
2019-04-05T06:44:19.897Z,52.81
2019-04-05T06:46:49.351Z,52.73
2019-04-05T06:49:18.884Z,52.20
2019-04-05T06:51:48.437Z,52.46
2019-04-05T06:54:17.884Z,52.56
2019-04-05T06:56:47.303Z,52.03
2019-04-05T06:59:19.337Z,51.29
2019-04-05T07:01:47.861Z,51.33
2019-04-05T07:04:17.405Z,51.38
2019-04-05T07:06:46.834Z,50.48
2019-04-05T07:09:16.407Z,50.66
2019-04-05T07:11:45.929Z,50.07
2019-04-05T07:14:15.378Z,49.80
2019-04-05T07:16:44.900Z,49.78
2019-04-05T07:19:14.355Z,49.13
2019-04-05T07:21:43.772Z,48.21
2019-04-05T07:24:13.527Z,48.11
2019-04-05T07:26:42.949Z,48.46
2019-04-05T07:29:12.399Z,47.95
2019-04-05T07:31:41.823Z,46.86
2019-04-05T07:34:11.271Z,46.46
2019-04-05T07:36:40.685Z,46.14
2019-04-05T07:39:10.237Z,46.09
2019-04-05T07:41:39.649Z,45.71
2019-04-05T07:44:09.093Z,45.75
2019-04-05T07:46:38.513Z,44.53
2019-04-05T07:49:07.962Z,44.29
2019-04-05T07:51:37.386Z,44.24
2019-04-05T07:54:06.941Z,43.89
2019-04-05T07:56:36.358Z,45.30
2019-04-05T07:59:05.908Z,44.08
2019-04-05T08:01:35.433Z,43.25
2019-04-05T08:04:04.893Z,43.21
2019-04-05T08:06:34.582Z,42.20
2019-04-05T08:09:09.577Z,42.12
2019-04-05T08:11:38.998Z,42.08
2019-04-05T08:14:08.556Z,41.39
2019-04-05T08:16:37.961Z,41.50
2019-04-05T08:19:07.424Z,41.13
2019-04-05T08:21:36.858Z,41.72
2019-04-05T08:24:06.325Z,41.24
2019-04-05T08:26:35.759Z,41.31
2019-04-05T08:29:05.298Z,41.16
2019-04-05T08:31:34.925Z,40.78
2019-04-05T08:34:04.386Z,39.87
2019-04-05T08:36:33.811Z,39.58
2019-04-05T08:39:05.314Z,39.42
2019-04-05T08:41:35.064Z,39.81
2019-04-05T08:44:04.782Z,38.74
2019-04-05T08:46:35.087Z,37.96
2019-04-05T08:49:10.476Z,37.84
2019-04-05T08:51:35.733Z,37.15
2019-04-05T08:54:05.664Z,37.64
2019-04-05T08:56:35.312Z,37.24
2019-04-05T08:59:04.858Z,36.63
2019-04-05T09:01:34.496Z,35.84
2019-04-05T09:04:04.460Z,35.52
2019-04-05T09:06:33.905Z,35.36
2019-04-05T09:09:06.118Z,35.58
2019-04-05T09:11:35.624Z,35.74
2019-04-05T09:14:05.355Z,35.63
2019-04-05T09:16:34.808Z,34.70
2019-04-05T09:19:04.325Z,34.91
2019-04-05T09:21:33.787Z,33.44
2019-04-05T09:24:03.697Z,33.25
2019-04-05T09:26:33.247Z,32.24
2019-04-05T09:29:02.839Z,31.92
2019-04-05T09:31:32.441Z,31.23
2019-04-05T09:34:02.418Z,30.26
2019-04-05T09:36:31.886Z,29.58
2019-04-05T09:39:01.304Z,30.90
2019-04-05T09:41:30.857Z,30.44
2019-04-05T09:44:00.270Z,30.44
2019-04-05T09:46:29.917Z,30.54
2019-04-05T09:48:59.328Z,31.27
2019-04-05T09:51:28.777Z,31.07
2019-04-05T09:53:58.189Z,31.03
2019-04-05T09:56:27.631Z,31.27
2019-04-05T09:58:57.046Z,30.63
2019-04-05T10:01:26.508Z,30.89
2019-04-05T10:03:55.928Z,31.04
2019-04-05T10:06:25.581Z,30.16
2019-04-05T10:08:54.992Z,30.38
2019-04-05T10:11:24.441Z,31.22
2019-04-05T10:13:53.859Z,31.96
2019-04-05T10:16:23.319Z,32.33
2019-04-05T10:18:52.738Z,32.53
2019-04-05T10:21:22.182Z,32.99
2019-04-05T10:23:51.597Z,32.92
2019-04-05T10:26:21.045Z,32.55
2019-04-05T10:28:50.459Z,32.37
2019-04-05T10:31:20.106Z,31.83
2019-04-05T10:33:49.518Z,31.33
2019-04-05T10:36:20.143Z,30.50
2019-04-05T10:38:49.757Z,29.82
2019-04-05T10:41:19.201Z,29.39
2019-04-05T10:43:48.674Z,28.35
2019-04-05T10:46:18.124Z,27.29
2019-04-05T10:48:47.538Z,26.63
2019-04-05T10:51:16.984Z,25.38
2019-04-05T10:53:46.403Z,24.91
2019-04-05T10:56:15.943Z,24.38
2019-04-05T10:58:45.365Z,24.29
2019-04-05T11:01:14.816Z,24.45
2019-04-05T11:03:44.327Z,23.49
2019-04-05T11:06:13.793Z,23.07
2019-04-05T11:08:43.211Z,22.35
2019-04-05T11:11:12.662Z,22.51
2019-04-05T11:13:47.573Z,21.74
2019-04-05T11:16:28.305Z,21.77
2019-04-05T11:18:57.829Z,21.70
2019-04-05T11:21:27.390Z,21.78
2019-04-05T11:23:56.806Z,22.69
2019-04-05T11:26:26.266Z,22.86
2019-04-05T11:28:55.679Z,23.98
2019-04-05T11:31:25.229Z,23.51
2019-04-05T11:33:54.649Z,23.64
2019-04-05T11:36:24.471Z,22.58
2019-04-05T11:38:53.880Z,23.41
2019-04-05T11:41:23.811Z,23.01
2019-04-05T11:43:53.334Z,22.13
2019-04-05T11:46:22.787Z,21.70
2019-04-05T11:48:52.240Z,21.48
2019-04-05T11:51:21.690Z,21.37
2019-04-05T11:53:51.330Z,21.01
2019-04-05T11:56:20.981Z,22.58
2019-04-05T11:58:51.098Z,21.90
2019-04-05T12:01:23.695Z,22.53
2019-04-05T12:03:53.273Z,21.39
2019-04-05T12:06:22.685Z,21.29
2019-04-05T12:08:52.137Z,22.45
2019-04-05T12:11:21.556Z,24.61
2019-04-05T12:13:51.117Z,26.07
2019-04-05T12:16:20.535Z,26.22
2019-04-05T12:18:50.843Z,25.24
2019-04-05T12:21:21.036Z,23.07
2019-04-05T12:23:50.595Z,21.77
2019-04-05T12:26:20.006Z,20.96
2019-04-05T12:28:49.462Z,19.88
2019-04-05T12:31:19.376Z,20.06
2019-04-05T12:33:51.381Z,19.31
2019-04-05T12:36:22.039Z,20.20
2019-04-05T12:38:53.990Z,21.73
2019-04-05T12:41:22.215Z,21.12
2019-04-05T12:43:51.666Z,21.22
2019-04-05T12:46:21.171Z,21.06
2019-04-05T12:48:50.631Z,22.28
2019-04-05T12:51:20.043Z,23.85
2019-04-05T12:53:49.484Z,24.93
2019-04-05T12:56:19.103Z,25.02
2019-04-05T12:58:48.554Z,24.21
2019-04-05T13:01:17.970Z,23.11
2019-04-05T13:03:47.404Z,22.07
2019-04-05T13:06:16.816Z,22.23
2019-04-05T13:08:46.371Z,21.05
2019-04-05T13:11:15.785Z,20.78
2019-04-05T13:13:45.337Z,21.15
2019-04-05T13:16:14.743Z,21.66
2019-04-05T13:18:44.282Z,21.97
2019-04-05T13:21:15.632Z,22.64
2019-04-05T13:23:45.096Z,23.42
2019-04-05T13:26:14.509Z,24.94
2019-04-05T13:28:44.159Z,25.59
2019-04-05T13:31:13.607Z,26.29
2019-04-05T13:33:43.057Z,25.87
2019-04-05T13:36:12.473Z,25.37
2019-04-05T13:38:53.948Z,25.42
2019-04-05T13:41:13.129Z,24.85
2019-04-05T13:43:42.569Z,24.80
2019-04-05T13:46:21.272Z,25.03
2019-04-05T13:48:43.164Z,25.61
2019-04-05T13:51:13.073Z,25.61
2019-04-05T13:53:42.601Z,24.55
2019-04-05T13:56:12.012Z,23.80
2019-04-05T13:58:41.456Z,23.14
2019-04-05T14:01:10.924Z,24.04
2019-04-05T14:03:40.379Z,22.94
2019-04-05T14:06:10.794Z,23.16
2019-04-05T14:08:41.927Z,24.90
2019-04-05T14:11:11.820Z,25.33
2019-04-05T14:13:42.964Z,26.43
2019-04-05T14:16:13.142Z,27.37
2019-04-05T14:18:47.975Z,28.04
2019-04-05T14:21:13.860Z,27.73
2019-04-05T14:23:43.281Z,27.74
2019-04-05T14:26:12.820Z,27.87
2019-04-05T14:28:42.232Z,28.38
2019-04-05T14:31:11.680Z,29.13
2019-04-05T14:33:41.111Z,28.22
2019-04-05T14:36:10.566Z,28.40
2019-04-05T14:38:40.087Z,28.23
2019-04-05T14:41:09.528Z,28.46
2019-04-05T14:43:38.952Z,27.63
2019-04-05T14:46:08.970Z,27.92
2019-04-05T14:48:38.484Z,28.50
2019-04-05T14:51:07.948Z,28.25
2019-04-05T14:53:37.494Z,28.80
2019-04-05T14:56:06.948Z,29.10
2019-04-05T14:58:36.369Z,29.22
2019-04-05T15:01:05.951Z,29.96
2019-04-05T15:03:35.368Z,28.98
2019-04-05T15:06:05.172Z,29.13
2019-04-05T15:08:35.102Z,29.56
2019-04-05T15:11:04.813Z,28.58
2019-04-05T15:13:34.645Z,27.62
2019-04-05T15:16:04.107Z,28.43
2019-04-05T15:18:33.525Z,28.68
2019-04-05T15:21:05.461Z,28.56
2019-04-05T15:23:35.076Z,27.98
2019-04-05T15:26:04.589Z,28.40
2019-04-05T15:28:34.006Z,28.27
2019-04-05T15:31:03.908Z,28.52
2019-04-05T15:33:33.319Z,28.52
2019-04-05T15:36:03.228Z,28.40
2019-04-05T15:38:32.642Z,28.72
2019-04-05T15:41:02.105Z,28.63
2019-04-05T15:43:31.618Z,28.52
2019-04-05T15:46:01.215Z,29.25
2019-04-05T15:48:30.735Z,30.27
2019-04-05T15:51:00.189Z,29.71
2019-04-05T15:56:04.024Z,30.93
2019-04-05T15:58:31.490Z,33.91
2019-04-05T16:01:04.183Z,37.35
2019-04-05T16:03:33.373Z,40.03
2019-04-05T16:06:02.823Z,40.33
2019-04-05T16:08:32.336Z,40.76
2019-04-05T16:11:01.990Z,39.87
2019-04-05T16:13:31.408Z,51.19
2019-04-05T16:16:00.865Z,63.31
2019-04-05T16:18:30.408Z,66.78
2019-04-05T16:20:59.834Z,71.14
2019-04-05T16:23:29.386Z,71.88
2019-04-05T16:25:58.814Z,68.24
2019-04-05T16:28:28.363Z,72.16
2019-04-05T16:30:58.780Z,72.26
2019-04-05T16:33:29.954Z,72.47
2019-04-05T16:36:02.260Z,68.99
2019-04-05T16:38:32.384Z,70.72
2019-04-05T16:41:01.814Z,73.00
2019-04-05T16:43:31.363Z,74.65
2019-04-05T16:46:00.960Z,74.68
2019-04-05T16:48:30.517Z,70.33
2019-04-05T16:50:59.940Z,71.67
2019-04-05T16:53:29.393Z,69.03
2019-04-05T16:55:58.806Z,72.57
2019-04-05T16:58:28.253Z,69.44
2019-04-05T17:00:57.682Z,73.67
2019-04-05T17:03:27.137Z,69.34
2019-04-05T17:05:56.554Z,67.04
2019-04-05T17:08:26.118Z,67.43
2019-04-05T17:10:55.631Z,66.51
2019-04-05T17:13:25.252Z,68.04
2019-04-05T17:15:54.679Z,69.16
2019-04-05T17:18:24.242Z,69.29
2019-04-05T17:20:53.777Z,67.09
2019-04-05T17:23:23.229Z,68.79
2019-04-05T17:25:52.654Z,69.42
2019-04-05T17:28:22.212Z,65.40
2019-04-05T17:30:51.662Z,63.61
2019-04-05T17:33:21.217Z,65.48
2019-04-05T17:35:50.646Z,65.21
2019-04-05T17:38:20.098Z,63.12
2019-04-05T17:40:49.521Z,63.00
2019-04-05T17:43:19.072Z,62.92
2019-04-05T17:45:48.597Z,62.00
2019-04-05T17:48:18.148Z,61.72
2019-04-05T17:50:47.680Z,64.01
2019-04-05T17:53:17.148Z,61.95
2019-04-05T17:55:46.574Z,61.96
2019-04-05T17:58:16.028Z,62.67
2019-04-05T18:00:45.450Z,62.88
2019-04-05T18:03:14.900Z,59.84
2019-04-05T18:05:44.320Z,60.93
2019-04-05T18:08:13.775Z,60.05
2019-04-05T18:10:43.677Z,58.02
2019-04-05T18:13:13.222Z,58.33
2019-04-05T18:15:52.505Z,60.01
2019-04-05T18:18:13.997Z,59.55
2019-04-05T18:20:43.518Z,57.88
2019-04-05T18:23:24.276Z,59.47
2019-04-05T18:25:44.095Z,58.63
2019-04-05T18:28:13.549Z,57.91
2019-04-05T18:30:43.000Z,58.90
2019-04-05T18:33:12.448Z,57.56
2019-04-05T18:35:42.037Z,57.45
2019-04-05T18:38:11.490Z,58.34
2019-04-05T18:40:41.014Z,57.09
2019-04-05T18:43:10.474Z,57.82
2019-04-05T18:45:39.928Z,57.71
2019-04-05T18:48:09.358Z,56.94
2019-04-05T18:50:38.807Z,57.20
2019-04-05T18:53:08.240Z,56.78
2019-04-05T18:55:37.974Z,56.60
2019-04-05T18:58:07.399Z,56.35
2019-04-05T19:00:37.081Z,56.43
2019-04-05T19:03:06.610Z,56.24
2019-04-05T19:05:36.371Z,57.22
2019-04-05T19:08:06.302Z,56.15
2019-04-05T19:10:37.478Z,56.09
2019-04-05T19:13:07.159Z,56.60
2019-04-05T19:15:37.056Z,56.17
2019-04-05T19:18:06.727Z,56.72
2019-04-05T19:20:37.135Z,55.73
2019-04-05T19:23:06.516Z,56.85
2019-04-05T19:25:35.975Z,54.86
2019-04-05T19:28:05.408Z,54.73
2019-04-05T19:50:45.631Z,53.75
2019-04-05T19:53:15.058Z,55.52
2019-04-05T19:55:44.612Z,54.03
2019-04-05T19:58:14.030Z,54.20
2019-04-05T20:00:43.490Z,54.80
2019-04-05T20:03:12.918Z,53.99
2019-04-05T20:05:42.482Z,54.15
2019-04-05T20:08:11.951Z,54.10
2019-04-05T20:10:41.503Z,53.84
2019-04-05T20:13:10.927Z,53.67
2019-04-05T20:15:40.384Z,55.68
2019-04-05T20:18:09.817Z,54.66
2019-04-05T20:20:39.362Z,54.42
2019-04-05T20:23:08.794Z,54.83
2019-04-05T20:25:38.259Z,55.16
2019-04-05T20:28:07.943Z,55.01
2019-04-05T20:30:37.492Z,53.95
2019-04-05T20:33:06.916Z,54.42
2019-04-05T20:35:36.451Z,54.64
2019-04-05T20:38:06.258Z,55.87
2019-04-05T20:40:36.274Z,54.91
2019-04-05T20:43:05.808Z,55.99
2019-04-05T20:45:35.561Z,57.60
2019-04-05T20:48:05.034Z,56.69
2019-04-05T20:50:34.445Z,55.17
2019-04-05T20:53:03.867Z,55.64
2019-04-05T20:55:33.317Z,53.73
2019-04-05T20:58:02.744Z,55.05
2019-04-05T21:00:32.571Z,55.33
2019-04-05T21:03:01.995Z,54.49
2019-04-05T21:05:31.546Z,54.31
2019-04-05T21:08:01.070Z,54.54
2019-04-05T21:10:30.515Z,54.64
2019-04-05T21:12:59.941Z,54.90
2019-04-05T21:15:29.411Z,54.16
2019-04-05T21:17:58.860Z,54.29
2019-04-05T21:20:28.321Z,54.42
2019-04-05T21:22:57.772Z,54.59
2019-04-05T21:25:27.298Z,54.56
2019-04-05T21:27:56.755Z,54.98
2019-04-05T21:30:26.171Z,54.45
2019-04-05T21:32:55.624Z,55.02
2019-04-05T21:35:25.043Z,55.53
2019-04-05T21:37:54.498Z,55.20
2019-04-05T21:40:24.026Z,55.27
2019-04-05T21:42:53.474Z,55.41
2019-04-05T21:45:22.890Z,55.76
2019-04-05T21:47:52.459Z,57.64
2019-04-05T21:50:22.042Z,56.38
2019-04-05T21:52:51.438Z,56.07
2019-04-05T21:55:20.966Z,55.63
2019-04-05T21:57:50.586Z,56.14
2019-04-05T22:00:27.886Z,55.61
2019-04-05T22:02:57.441Z,56.94
2019-04-05T22:05:26.861Z,56.33
2019-04-05T22:07:56.314Z,56.73
2019-04-05T22:10:25.741Z,57.03
2019-04-05T22:12:55.191Z,56.58
2019-04-05T22:15:24.618Z,56.43
2019-04-05T22:17:55.521Z,56.84
2019-04-05T22:20:24.953Z,57.09
2019-04-05T22:22:54.414Z,58.93
2019-04-05T22:25:23.839Z,57.76
2019-04-05T22:27:53.291Z,58.17
2019-04-05T22:30:22.721Z,57.10
2019-04-05T22:32:52.186Z,58.27
2019-04-05T22:35:21.708Z,58.34
2019-04-05T22:37:51.160Z,58.18
2019-04-05T22:40:20.590Z,58.31
2019-04-05T22:42:50.137Z,58.33
2019-04-05T22:45:19.658Z,58.98
2019-04-05T22:47:49.117Z,58.53
2019-04-05T22:50:18.638Z,57.59
2019-04-05T22:52:48.086Z,57.89
2019-04-05T22:55:17.813Z,57.63
2019-04-05T22:57:47.465Z,58.19
2019-04-05T23:00:16.988Z,58.35
2019-04-05T23:02:46.661Z,58.06
2019-04-05T23:05:16.189Z,59.63
2019-04-05T23:07:45.734Z,59.21
2019-04-05T23:10:15.259Z,61.13
2019-04-05T23:12:44.813Z,59.63
2019-04-05T23:15:14.355Z,59.81
2019-04-05T23:17:43.802Z,59.42
2019-04-05T23:20:13.237Z,59.67
2019-04-05T23:22:42.784Z,59.79
2019-04-05T23:25:21.460Z,59.88
2019-04-05T23:27:43.555Z,59.90
2019-04-05T23:30:13.047Z,60.00
2019-04-05T23:32:42.503Z,60.59
2019-04-05T23:35:12.031Z,60.06
2019-04-05T23:37:41.585Z,59.96
2019-04-05T23:40:11.014Z,60.09
2019-04-05T23:42:40.477Z,60.73
2019-04-05T23:45:09.998Z,60.41
2019-04-05T23:47:39.457Z,60.52
2019-04-05T23:50:08.876Z,61.17
2019-04-05T23:52:38.442Z,60.12
2019-04-05T23:55:08.081Z,60.79
2019-04-05T23:57:37.551Z,60.74
